Time;durP1;ratioP1;P1;durP2;ratioP2;P2;SDS_P1;SDS_P2;PMS_P1;PMS_P2;Temp;Humidity;BMP_temperature;BMP_pressure;BME280_temperature;BME280_humidity;BME280_pressure;Samples;Min_cycle;Max_cycle;Signal;HPM_P1;HPM_P2
2022/10/25 00:01:52;;;;;;;;;36.00;32.00;;;;;21.86;47.08;99489.03;4963021;28;8915;-81
2022/10/25 00:04:22;;;;;;;;;32.25;30.75;;;;;22.11;47.03;99493.16;4967447;28;8844;-80
2022/10/25 00:06:51;;;;;;;;;38.00;34.00;;;;;22.23;46.71;99481.06;4965931;28;10356;-80
2022/10/25 00:09:20;;;;;;;;;34.25;32.00;;;;;22.32;46.72;99477.97;4973418;28;8861;-77
2022/10/25 00:11:49;;;;;;;;;35.00;32.25;;;;;22.32;46.42;99470.84;4967567;28;9645;-79
2022/10/25 00:14:19;;;;;;;;;34.00;30.00;;;;;22.31;46.53;99466.50;4950597;28;8871;-78
2022/10/25 00:16:48;;;;;;;;;41.50;34.50;;;;;22.34;46.41;99465.47;4967833;28;8841;-78
2022/10/25 00:19:16;;;;;;;;;38.50;33.75;;;;;22.28;46.21;99474.59;4951263;28;8872;-79
2022/10/25 00:21:46;;;;;;;;;34.25;32.25;;;;;22.27;46.46;99469.38;4969681;28;8852;-76
2022/10/25 00:24:15;;;;;;;;;41.50;35.50;;;;;22.28;46.45;99468.44;4965452;28;8849;-79
2022/10/25 00:26:43;;;;;;;;;40.25;34.75;;;;;22.31;46.63;99476.28;4967328;28;8902;-77
2022/10/25 00:29:12;;;;;;;;;40.00;34.75;;;;;22.31;46.45;99476.28;4967200;28;9671;-78
2022/10/25 00:31:41;;;;;;;;;38.25;34.00;;;;;22.34;46.70;99468.13;4982088;28;8863;-78
2022/10/25 00:34:09;;;;;;;;;37.00;33.50;;;;;22.31;46.74;99476.28;4965327;28;8873;-78
2022/10/25 00:36:38;;;;;;;;;37.50;33.00;;;;;22.28;46.75;99463.97;4981805;28;8875;-81
2022/10/25 00:39:08;;;;;;;;;42.50;34.50;;;;;22.28;47.04;99471.09;5032952;28;9575;-81
2022/10/25 00:41:39;;;;;;;;;35.00;33.25;;;;;22.19;46.92;99462.63;4918540;28;8863;-79
2022/10/25 00:44:46;;;;;;;;;42.50;35.25;;;;;22.30;46.82;99469.22;4947180;29;8855;-79
2022/10/25 00:47:23;;;;;;;;;41.00;33.75;;;;;22.14;47.27;99461.13;4961679;28;8980;-77
2022/10/25 00:49:59;;;;;;;;;36.00;33.75;;;;;22.08;47.20;99469.38;4945520;28;8937;-81
2022/10/25 00:52:31;;;;;;;;;35.25;32.25;;;;;22.05;47.50;99486.34;4945665;28;9072;-79
2022/10/25 00:55:03;;;;;;;;;36.00;32.25;;;;;21.94;47.23;99486.84;4945608;28;8875;-76
2022/10/25 00:57:36;;;;;;;;;37.25;33.00;;;;;21.97;47.77;99491.19;4948030;28;9608;-79
2022/10/25 01:00:07;;;;;;;;;37.75;33.50;;;;;21.95;47.60;99490.41;4948864;28;8972;-78
2022/10/25 01:02:36;;;;;;;;;38.25;32.75;;;;;21.94;47.58;99496.63;4948459;28;8863;-77
2022/10/25 01:05:05;;;;;;;;;40.50;35.00;;;;;21.94;47.62;99496.63;4948312;28;8882;-80
2022/10/25 01:07:33;;;;;;;;;36.25;33.50;;;;;21.90;47.92;99487.09;4915890;28;8871;-77
2022/10/25 01:10:04;;;;;;;;;42.00;35.50;;;;;21.88;48.31;99481.00;4949620;28;9042;-80
2022/10/25 01:12:33;;;;;;;;;40.50;34.25;;;;;21.77;48.40;99482.34;4950168;28;8843;-80
2022/10/25 01:15:04;;;;;;;;;42.00;36.25;;;;;21.71;48.47;99473.84;4932702;28;8863;-79
2022/10/25 01:17:41;;;;;;;;;40.25;33.50;;;;;21.68;49.00;99490.78;4947851;28;8839;-76
2022/10/25 01:20:37;;;;;;;;;45.00;37.50;;;;;21.69;48.93;99486.31;4950098;28;8910;-78
2022/10/25 01:23:24;;;;;;;;;48.50;40.00;;;;;21.63;49.12;99487.47;4890489;29;8864;-77
2022/10/25 01:26:11;;;;;;;;;41.25;34.75;;;;;21.57;49.13;99485.97;4956297;28;8841;-78
2022/10/25 01:28:56;;;;;;;;;45.75;38.75;;;;;21.47;49.68;99487.31;4956361;28;8848;-78
2022/10/25 01:31:35;;;;;;;;;49.25;40.00;;;;;21.39;50.11;99481.47;4881314;28;8861;-78
2022/10/25 01:34:11;;;;;;;;;44.00;37.25;;;;;21.32;50.62;99495.94;4874397;29;9010;-78
2022/10/25 01:36:46;;;;;;;;;48.25;39.25;;;;;21.26;50.68;99490.94;4889733;29;8887;-76
2022/10/25 01:39:18;;;;;;;;;50.00;41.00;;;;;;;;4889689;29;8876;-76
2022/10/25 01:42:01;;;;;;;;;47.50;39.50;;;;;21.17;51.00;99485.13;4873994;29;8869;-77
2022/10/25 01:44:39;;;;;;;;;46.75;39.50;;;;;21.13;51.08;99483.50;4956022;28;8876;-79
2022/10/25 01:47:15;;;;;;;;;48.50;39.00;;;;;21.05;51.57;99483.00;4862721;28;8853;-79
2022/10/25 01:49:48;;;;;;;;;53.50;43.00;;;;;21.00;51.85;99491.19;4922106;29;8860;-77
2022/10/25 01:52:20;;;;;;;;;51.50;41.25;;;;;20.93;52.02;99484.41;4986965;28;8864;-79
2022/10/25 01:54:50;;;;;;;;;50.50;42.50;;;;;20.83;52.13;99480.44;4885541;29;8983;-78
2022/10/25 01:57:44;;;;;;;;;49.00;40.25;;;;;20.94;51.65;99475.53;4899537;29;8876;-77
2022/10/25 02:00:17;;;;;;;;;50.50;41.75;;;;;20.81;52.74;99469.03;4980427;28;8879;-78
2022/10/25 02:03:00;;;;;;;;;51.00;40.00;;;;;20.83;52.58;99480.44;4949069;28;8968;-77
2022/10/25 02:05:38;;;;;;;;;53.50;42.00;;;;;20.75;52.64;99477.25;4949319;28;8877;-79
2022/10/25 02:08:18;;;;;;;;;49.25;38.75;;;;;20.75;52.83;99477.25;4948362;28;8889;-77
2022/10/25 02:10:55;;;;;;;;;49.50;40.25;;;;;20.72;52.70;99477.38;4948658;28;8878;-77
2022/10/25 02:13:30;;;;;;;;;44.00;36.00;;;;;20.63;53.14;99479.50;4964014;28;8863;-77
2022/10/25 02:16:05;;;;;;;;;47.75;39.50;;;;;20.62;53.22;99482.22;4949680;28;8862;-78
2022/10/25 02:18:39;;;;;;;;;47.50;38.75;;;;;20.60;53.50;99489.38;4948444;28;9005;-80
2022/10/25 02:21:12;;;;;;;;;48.50;40.00;;;;;20.58;53.44;99484.13;4947936;28;8890;-78
2022/10/25 02:23:41;;;;;;;;;43.00;35.50;;;;;20.54;53.41;99489.63;4930873;28;8944;-76
2022/10/25 02:26:11;;;;;;;;;49.25;39.00;;;;;20.49;53.71;99479.22;4947593;28;8859;-77
2022/10/25 02:28:41;;;;;;;;;47.00;39.00;;;;;20.52;53.50;99489.69;4947254;28;8868;-77
2022/10/25 02:31:15;;;;;;;;;45.75;38.00;;;;;20.41;54.23;99500.72;4948991;28;8894;-76
2022/10/25 02:33:45;;;;;;;;;43.50;37.25;;;;;20.42;54.13;99505.09;4946036;28;9036;-77
2022/10/25 02:36:16;;;;;;;;;42.50;36.75;;;;;20.42;54.02;99488.34;4948133;28;8847;-78
2022/10/25 02:38:45;;;;;;;;;45.25;38.00;;;;;20.31;54.77;99496.75;4946708;28;8836;-79
2022/10/25 02:41:14;;;;;;;;;46.75;38.00;;;;;20.35;54.17;99498.34;4995997;28;8963;-76
2022/10/25 02:43:43;;;;;;;;;46.75;38.50;;;;;20.42;54.04;99497.16;4947824;28;9028;-78
2022/10/25 02:46:13;;;;;;;;;44.25;36.00;;;;;20.35;54.59;99502.78;4947330;28;8870;-82
2022/10/25 02:48:42;;;;;;;;;46.50;38.25;;;;;20.33;54.51;99500.19;4947497;28;8886;-77
2022/10/25 02:51:14;;;;;;;;;45.25;36.00;;;;;20.31;54.52;99501.19;4956963;28;9654;-77
2022/10/25 02:53:43;;;;;;;;;47.00;39.00;;;;;20.22;54.59;99505.06;4966421;28;8896;-79
2022/10/25 02:56:15;;;;;;;;;46.25;36.25;;;;;20.13;54.88;99513.38;4967839;28;8860;-79
2022/10/25 02:58:45;;;;;;;;;46.00;36.50;;;;;20.18;54.82;99519.34;4972485;28;8832;-77
2022/10/25 03:01:14;;;;;;;;;49.50;40.00;;;;;20.24;54.54;99511.16;4952311;28;8878;-77
2022/10/25 03:03:44;;;;;;;;;45.50;36.25;;;;;20.15;54.81;99519.47;4953791;28;10129;-79
2022/10/25 03:06:14;;;;;;;;;43.25;36.25;;;;;20.19;54.77;99521.94;4949165;28;8936;-78
2022/10/25 03:08:45;;;;;;;;;48.50;38.00;;;;;20.24;54.41;99530.56;4947266;28;8871;-76
2022/10/25 03:11:14;;;;;;;;;45.00;36.50;;;;;20.29;54.36;99525.06;4947553;28;8867;-77
2022/10/25 03:13:43;;;;;;;;;48.25;39.00;;;;;20.25;54.48;99542.03;4965600;28;8860;-78
2022/10/25 03:16:12;;;;;;;;;45.25;36.00;;;;;20.34;54.28;99533.72;4974336;28;8867;-75
2022/10/25 03:18:40;;;;;;;;;49.50;40.25;;;;;20.42;54.09;99531.59;4965304;28;8876;-79
2022/10/25 03:21:09;;;;;;;;;43.25;38.00;;;;;20.48;54.04;99535.78;4966291;28;8864;-79
2022/10/25 03:23:39;;;;;;;;;48.00;37.75;;;;;20.52;53.89;99540.00;4967534;28;8945;-77
2022/10/25 03:26:08;;;;;;;;;59.75;47.00;;;;;20.54;53.82;99543.47;4965548;28;9578;-77
2022/10/25 03:28:36;;;;;;;;;45.25;39.00;;;;;20.50;53.85;99536.56;4957107;28;8905;-79
2022/10/25 03:31:11;;;;;;;;;50.75;41.75;;;;;20.55;53.80;99539.91;4947334;28;8843;-81
2022/10/25 03:33:40;;;;;;;;;46.25;38.00;;;;;20.54;53.75;99537.31;4947908;28;8875;-79
2022/10/25 03:36:09;;;;;;;;;43.25;34.50;;;;;20.56;53.71;99544.25;4930997;28;8851;-78
2022/10/25 03:38:39;;;;;;;;;49.50;38.25;;;;;20.53;53.91;99539.09;4931026;28;8917;-78
2022/10/25 03:41:07;;;;;;;;;43.50;35.50;;;;;20.56;53.98;99549.56;4962501;28;8874;-81
2022/10/25 03:43:36;;;;;;;;;47.50;40.00;;;;;20.56;53.81;99548.69;4947754;28;8843;-77
2022/10/25 03:46:05;;;;;;;;;45.50;37.00;;;;;20.58;53.85;99545.06;4948430;28;9690;-78
2022/10/25 03:48:34;;;;;;;;;47.00;39.25;;;;;20.57;54.03;99551.28;4947993;28;8863;-77
2022/10/25 03:51:02;;;;;;;;;47.75;39.00;;;;;20.57;54.34;99553.94;4930710;28;8870;-77
2022/10/25 03:53:31;;;;;;;;;48.25;39.00;;;;;20.61;54.06;99555.56;4930354;29;9005;-80
2022/10/25 03:56:01;;;;;;;;;48.00;40.00;;;;;20.59;54.13;99548.59;4946066;28;8839;-79
2022/10/25 03:58:29;;;;;;;;;49.50;40.75;;;;;20.61;54.03;99557.38;4961357;28;8978;-80
2022/10/25 04:00:59;;;;;;;;;49.00;39.00;;;;;20.63;54.05;99564.31;5033873;28;8855;-78
2022/10/25 04:03:28;;;;;;;;;67.33;52.67;;;;;20.66;54.07;99565.09;4962745;28;8867;-80
2022/10/25 04:05:57;;;;;;;;;54.75;45.75;;;;;20.66;53.80;99568.59;4947869;28;9273;-78
2022/10/25 04:08:25;;;;;;;;;48.25;39.75;;;;;20.61;54.14;99567.97;4944920;29;8851;-76
2022/10/25 04:10:54;;;;;;;;;43.50;36.25;;;;;20.61;54.27;99568.81;4929757;28;8875;-81
2022/10/25 04:13:24;;;;;;;;;44.00;36.75;;;;;20.62;54.30;99567.03;4945793;28;8977;-78
2022/10/25 04:15:53;;;;;;;;;47.25;38.00;;;;;20.63;54.34;99561.66;4994882;28;9613;-78
2022/10/25 04:18:21;;;;;;;;;46.25;38.50;;;;;20.60;54.44;99566.22;4945122;28;8879;-78
2022/10/25 04:20:50;;;;;;;;;48.75;40.00;;;;;20.51;55.01;99575.41;4952041;28;8886;-78
2022/10/25 04:23:18;;;;;;;;;65.33;51.00;;;;;20.53;55.14;99573.53;4945694;29;8921;-77
2022/10/25 04:25:47;;;;;;;;;67.33;53.67;;;;;20.57;54.91;99584.88;4929895;29;9028;-78
2022/10/25 04:28:16;;;;;;;;;50.00;40.75;;;;;20.52;55.17;99586.84;4961833;28;9120;-79
2022/10/25 04:30:46;;;;;;;;;62.50;49.50;;;;;20.48;55.68;99587.91;4947029;28;8947;-77
2022/10/25 04:33:15;;;;;;;;;58.25;46.25;;;;;20.44;55.21;99582.72;4962771;28;8887;-77
2022/10/25 04:35:44;;;;;;;;;51.75;41.75;;;;;20.51;55.24;99579.81;4970028;28;8895;-79
2022/10/25 04:38:12;;;;;;;;;49.75;39.00;;;;;20.47;55.51;99588.81;4967973;28;8914;-79
2022/10/25 04:40:41;;;;;;;;;47.25;38.00;;;;;20.45;55.62;99586.22;4961638;28;8863;-77
2022/10/25 04:43:09;;;;;;;;;57.50;45.50;;;;;20.42;56.04;99579.28;4950090;28;9727;-74
2022/10/25 04:45:38;;;;;;;;;48.00;39.75;;;;;20.40;56.32;99590.88;4948783;28;8982;-78
2022/10/25 04:48:08;;;;;;;;;47.75;39.00;;;;;20.34;56.54;99584.03;4950320;28;8955;-79
2022/10/25 04:50:37;;;;;;;;;48.50;39.50;;;;;20.33;56.66;99582.28;4947805;28;8874;-79
2022/10/25 04:53:06;;;;;;;;;45.75;39.00;;;;;20.38;56.67;99588.28;4947729;28;8856;-77
2022/10/25 04:55:35;;;;;;;;;45.25;37.50;;;;;20.36;56.67;99592.78;4946306;28;8859;-77
2022/10/25 04:58:04;;;;;;;;;47.25;40.00;;;;;20.31;56.95;99599.19;4956054;28;8887;-78
2022/10/25 05:00:33;;;;;;;;;47.00;39.75;;;;;20.33;57.14;99602.63;4997836;28;8863;-77
2022/10/25 05:03:01;;;;;;;;;45.25;38.25;;;;;20.36;57.05;99600.72;4948319;28;8884;-82
2022/10/25 05:05:31;;;;;;;;;49.25;41.00;;;;;20.37;56.98;99602.44;4967313;28;8864;-79
2022/10/25 05:08:00;;;;;;;;;48.00;38.50;;;;;20.36;56.88;99602.47;4900702;28;8875;-78
2022/10/25 05:10:28;;;;;;;;;47.50;39.75;;;;;20.33;56.87;99598.19;4948288;28;9048;-78
2022/10/25 05:12:57;;;;;;;;;45.75;38.00;;;;;20.24;57.35;99593.25;4948842;28;8859;-78
2022/10/25 05:15:25;;;;;;;;;46.25;39.00;;;;;20.20;57.95;99599.59;4945984;28;8862;-79
2022/10/25 05:17:56;;;;;;;;;46.50;39.50;;;;;20.14;58.27;99606.00;4966663;28;8870;-81
2022/10/25 05:20:26;;;;;;;;;48.50;38.25;;;;;20.12;58.24;99605.19;4934304;28;8893;-78
2022/10/25 05:22:55;;;;;;;;;47.75;39.25;;;;;20.16;58.37;99608.59;4947309;28;8873;-77
2022/10/25 05:25:24;;;;;;;;;47.00;39.00;;;;;20.24;58.05;99622.38;4934560;28;8873;-78
2022/10/25 05:27:53;;;;;;;;;47.00;40.00;;;;;20.27;58.00;99626.72;4970059;28;8983;-77
2022/10/25 05:30:22;;;;;;;;;50.75;39.75;;;;;20.26;58.28;99623.16;4966444;28;8888;-77
2022/10/25 05:32:51;;;;;;;;;47.75;40.25;;;;;20.33;58.07;99624.66;4946100;28;8876;-80
2022/10/25 05:35:20;;;;;;;;;50.25;41.25;;;;;20.33;58.29;99640.56;4948095;28;8852;-78
2022/10/25 05:37:49;;;;;;;;;48.50;37.75;;;;;20.34;58.25;99641.41;4948544;28;8960;-78
2022/10/25 05:40:19;;;;;;;;;51.50;43.50;;;;;20.28;58.66;99645.16;4916623;28;8885;-80
2022/10/25 05:42:47;;;;;;;;;45.00;35.50;;;;;19.80;61.21;99656.69;5019781;28;8883;-78
2022/10/25 05:45:17;;;;;;;;;46.50;38.75;;;;;18.79;65.52;99666.25;4945113;28;8859;-80
2022/10/25 05:47:45;;;;;;;;;48.00;40.00;;;;;19.18;63.83;99665.91;4923615;28;8871;-79
2022/10/25 05:50:14;;;;;;;;;45.25;37.75;;;;;19.53;62.24;99666.44;5001747;28;8974;-80
2022/10/25 05:52:43;;;;;;;;;47.50;39.75;;;;;18.93;65.41;99684.34;4935045;28;8997;-82
2022/10/25 05:55:12;;;;;;;;;44.50;35.50;;;;;18.25;68.68;99689.94;4914440;28;8893;-79
2022/10/25 05:57:42;;;;;;;;;46.00;39.25;;;;;17.93;70.32;99699.63;4914538;28;8985;-79
2022/10/25 06:00:12;;;;;;;;;49.25;40.75;;;;;17.76;71.70;99696.56;4914994;28;8893;-81
2022/10/25 06:02:40;;;;;;;;;42.00;36.50;;;;;17.65;72.56;99706.56;4930424;28;8974;-78
2022/10/25 06:05:09;;;;;;;;;45.00;38.00;;;;;17.76;72.16;99709.75;4934152;28;8850;-81
2022/10/25 06:07:38;;;;;;;;;49.75;41.00;;;;;17.71;72.60;99717.81;4934317;28;8854;-79
2022/10/25 06:10:08;;;;;;;;;48.75;40.50;;;;;17.81;72.38;99722.84;4902760;28;8854;-79
2022/10/25 06:12:38;;;;;;;;;46.50;37.50;;;;;17.65;73.09;99725.00;4950023;28;8874;-79
2022/10/25 06:15:10;;;;;;;;;47.50;40.25;;;;;17.74;72.68;99722.13;4934439;28;8850;-80
2022/10/25 06:17:39;;;;;;;;;47.25;40.00;;;;;17.97;71.82;99731.22;4949814;28;8878;-79
2022/10/25 06:20:09;;;;;;;;;58.25;47.25;;;;;17.85;72.42;99735.94;4950572;28;8862;-82
2022/10/25 06:22:38;;;;;;;;;47.50;39.50;;;;;17.73;72.49;99742.38;4949353;28;8878;-79
2022/10/25 06:25:07;;;;;;;;;49.75;40.00;;;;;17.94;72.24;99740.09;4967613;28;8854;-80
2022/10/25 06:27:36;;;;;;;;;46.50;38.75;;;;;18.03;71.47;99742.47;4965871;28;8932;-79
2022/10/25 06:30:06;;;;;;;;;48.75;39.00;;;;;17.97;71.83;99742.63;4934869;28;8850;-80
2022/10/25 06:32:37;;;;;;;;;48.00;39.50;;;;;18.07;71.59;99749.41;4968296;28;9758;-82
2022/10/25 06:35:07;;;;;;;;;46.00;38.25;;;;;18.03;71.34;99747.72;4966880;28;8845;-85
2022/10/25 06:37:35;;;;;;;;;47.00;37.00;;;;;18.11;71.28;99756.31;4951683;28;8887;-80
2022/10/25 06:40:05;;;;;;;;;46.00;37.50;;;;;18.63;69.07;99742.50;4967214;28;9658;-81
2022/10/25 06:42:33;;;;;;;;;44.75;38.50;;;;;18.44;69.34;99745.69;4951334;28;8961;-80
2022/10/25 06:45:02;;;;;;;;;48.25;40.75;;;;;18.46;69.75;99745.66;4950873;28;9713;-81
2022/10/25 06:47:31;;;;;;;;;42.75;34.50;;;;;18.56;68.99;99751.50;4984063;28;8868;-80
2022/10/25 06:50:01;;;;;;;;;49.50;40.75;;;;;18.42;69.86;99755.44;4967141;28;8903;-78
2022/10/25 06:52:30;;;;;;;;;49.75;41.25;;;;;18.83;68.36;99753.34;4969497;28;8876;-79
2022/10/25 06:54:58;;;;;;;;;37.25;33.50;;;;;19.17;66.92;99752.28;4967343;28;8965;-80
2022/10/25 06:57:27;;;;;;;;;37.00;32.50;;;;;18.74;68.63;99744.81;4937547;28;8934;-80
2022/10/25 06:59:56;;;;;;;;;46.50;37.25;;;;;18.91;68.13;99746.97;4971746;28;8860;-80
2022/10/25 07:02:24;;;;;;;;;45.25;37.25;;;;;19.01;67.71;99753.69;4967479;28;8984;-80
2022/10/25 07:04:53;;;;;;;;;43.75;36.75;;;;;19.20;66.87;99751.31;4949217;28;9021;-78
2022/10/25 07:07:23;;;;;;;;;40.75;36.00;;;;;19.39;66.27;99746.28;4913914;28;8856;-79
2022/10/25 07:09:52;;;;;;;;;37.50;32.25;;;;;18.92;68.37;99754.81;4929641;28;8926;-79
2022/10/25 07:12:20;;;;;;;;;44.75;37.00;;;;;19.21;67.11;99748.63;4945707;28;8941;-80
2022/10/25 07:14:49;;;;;;;;;23.25;21.50;;;;;19.63;65.57;99744.59;4930723;28;9077;-82
2022/10/25 07:17:18;;;;;;;;;27.25;26.50;;;;;19.23;66.83;99740.66;4946425;28;8852;-80
2022/10/25 07:19:46;;;;;;;;;31.75;30.25;;;;;19.29;67.00;99735.16;4946359;28;8848;-80
2022/10/25 07:22:15;;;;;;;;;26.80;23.20;;;;;19.82;64.79;99731.59;4931114;28;8982;-78
2022/10/25 07:24:45;;;;;;;;;31.25;28.25;;;;;19.95;64.29;99732.03;4966603;28;8862;-78
2022/10/25 07:27:13;;;;;;;;;27.60;26.80;;;;;19.67;65.27;99728.53;4971463;28;8915;-79
2022/10/25 07:29:43;;;;;;;;;29.25;28.00;;;;;19.51;66.18;99729.13;4955795;28;8870;-79
2022/10/25 07:32:12;;;;;;;;;29.20;27.60;;;;;19.85;64.89;99728.84;4988017;28;8850;-80
2022/10/25 07:34:40;;;;;;;;;22.00;20.60;;;;;19.46;66.08;99738.06;4980879;28;8962;-79
2022/10/25 07:37:09;;;;;;;;;25.00;21.80;;;;;19.79;64.82;99743.16;4967882;28;8904;-80
2022/10/25 07:39:38;;;;;;;;;31.75;30.00;;;;;19.91;64.75;99741.88;4966388;28;8958;-81
2022/10/25 07:42:07;;;;;;;;;27.00;23.60;;;;;20.07;63.96;99739.50;4946998;28;8864;-80
2022/10/25 07:44:36;;;;;;;;;22.20;21.00;;;;;19.93;64.46;99734.72;4932835;28;8864;-81
2022/10/25 07:47:05;;;;;;;;;24.00;22.80;;;;;19.76;65.23;99737.13;4952468;28;8856;-80
2022/10/25 07:49:35;;;;;;;;;20.00;20.00;;;;;19.60;65.16;99742.03;4917711;28;9652;-78
2022/10/25 07:52:05;;;;;;;;;18.60;18.60;;;;;19.89;64.12;99734.91;4919346;28;8868;-80
2022/10/25 07:54:34;;;;;;;;;19.60;17.00;;;;;19.69;64.34;99736.44;4934379;28;8888;-80
2022/10/25 07:57:05;;;;;;;;;19.20;19.20;;;;;19.88;64.20;99728.72;4919209;28;8942;-78
2022/10/25 07:59:35;;;;;;;;;20.00;19.40;;;;;19.80;64.51;99736.94;4931748;28;8864;-79
2022/10/25 08:02:03;;;;;;;;;26.00;23.75;;;;;20.01;63.99;99735.31;4929982;28;8952;-77
2022/10/25 08:04:32;;;;;;;;;15.60;15.20;;;;;20.05;63.67;99733.41;4929493;28;8879;-81
2022/10/25 08:07:03;;;;;;;;;21.40;17.60;;;;;20.44;62.27;99736.38;4932480;28;8892;-83
2022/10/25 08:09:31;;;;;;;;;17.20;16.00;;;;;20.57;61.16;99735.91;4932522;28;8837;-84
2022/10/25 08:12:06;;;;;;;;;14.80;14.40;;;;;20.45;61.97;99732.81;5012854;28;9620;-80
2022/10/25 08:14:37;;;;;;;;;16.00;14.80;;;;;20.23;62.30;99730.09;5052342;28;8884;-80
2022/10/25 08:17:09;;;;;;;;;12.40;11.80;;;;;20.33;61.38;99727.09;5069727;28;8953;-80
2022/10/25 08:19:38;;;;;;;;;20.20;12.80;;;;;20.62;60.68;99734.84;5070020;28;8848;-81
2022/10/25 08:22:07;;;;;;;;;14.60;13.00;;;;;21.27;58.69;99729.59;5052736;28;8840;-80
2022/10/25 08:24:37;;;;;;;;;12.60;11.60;;;;;21.68;57.46;99729.66;5069734;28;8852;-80
2022/10/25 08:27:06;;;;;;;;;18.40;16.40;;;;;21.92;56.40;99727.69;5052973;28;9594;-79
2022/10/25 08:29:36;;;;;;;;;14.00;14.00;;;;;21.98;55.46;99738.06;5052436;28;8960;-79
2022/10/25 08:32:05;;;;;;;;;20.00;19.20;;;;;21.62;57.16;99737.88;5069080;28;10134;-80
2022/10/25 08:34:33;;;;;;;;;13.60;13.60;;;;;22.19;55.72;99735.34;5053544;28;8847;-81
2022/10/25 08:37:02;;;;;;;;;17.40;17.20;;;;;22.02;56.19;99733.44;5069586;28;8843;-79
2022/10/25 08:39:31;;;;;;;;;15.40;14.80;;;;;21.73;56.43;99738.25;5053403;28;8944;-80
2022/10/25 08:42:01;;;;;;;;;14.60;13.40;;;;;21.78;56.56;99735.44;5055495;28;8864;-80
2022/10/25 08:44:43;;;;;;;;;24.00;22.00;;;;;21.91;56.37;99735.72;5069645;28;9082;-79
2022/10/25 08:47:18;;;;;;;;;26.40;25.60;;;;;22.20;54.64;99727.31;5067149;28;8861;-82
2022/10/25 08:49:55;;;;;;;;;19.40;17.40;;;;;21.77;56.62;99737.19;4984506;28;9775;-82
2022/10/25 08:52:30;;;;;;;;;24.00;22.60;;;;;21.90;56.62;99734.88;4985078;28;8953;-78
2022/10/25 08:55:02;;;;;;;;;29.20;26.20;;;;;22.37;55.39;99723.06;4949769;28;8960;-79
2022/10/25 08:57:38;;;;;;;;;24.40;23.20;;;;;22.80;53.96;99718.38;4948944;28;8932;-82
2022/10/25 09:00:16;;;;;;;;;29.20;27.60;;;;;22.30;54.58;99732.25;4950619;28;8836;-80
2022/10/25 09:02:49;;;;;;;;;27.40;24.80;;;;;21.37;57.59;99733.56;4950380;28;9742;-81
2022/10/25 09:05:36;;;;;;;;;29.40;27.80;;;;;21.73;56.64;99740.06;4933032;28;8891;-80
2022/10/25 09:08:27;;;;;;;;;30.20;28.40;;;;;22.31;54.93;99733.97;4947614;28;8894;-77
2022/10/25 09:11:06;;;;;;;;;29.40;27.00;;;;;22.34;54.96;99739.13;4946047;28;8871;-78
2022/10/25 09:13:44;;;;;;;;;33.75;32.25;;;;;21.93;56.64;99745.38;4947799;28;8863;-78
2022/10/25 09:16:17;;;;;;;;;33.80;29.80;;;;;21.80;57.09;99750.34;4945762;28;9613;-77
2022/10/25 09:18:49;;;;;;;;;26.60;25.60;;;;;21.26;58.23;99743.75;4945904;28;8945;-78
2022/10/25 09:21:27;;;;;;;;;29.80;28.00;;;;;21.43;57.93;99733.31;4948490;28;8858;-78
2022/10/25 09:23:58;;;;;;;;;24.80;24.80;;;;;21.22;58.61;99727.13;4948491;28;8897;-77
2022/10/25 09:26:40;;;;;;;;;30.60;28.00;;;;;21.21;58.88;99732.50;4946048;28;8979;-78
2022/10/25 09:29:17;;;;;;;;;20.60;19.60;;;;;20.90;59.14;99728.44;4946662;28;9024;-79
2022/10/25 09:31:51;;;;;;;;;34.20;29.20;;;;;20.81;59.48;99720.84;4947076;28;8966;-79
2022/10/25 09:34:22;;;;;;;;;24.00;23.20;;;;;20.98;59.06;99721.03;4948197;28;8868;-79
2022/10/25 09:36:55;;;;;;;;;25.20;24.20;;;;;21.42;57.88;99705.06;4948322;28;8911;-78
2022/10/25 09:39:30;;;;;;;;;27.00;24.60;;;;;21.94;56.35;99695.78;4964474;28;8891;-79
2022/10/25 09:42:02;;;;;;;;;26.60;25.40;;;;;22.06;55.72;99703.19;4964286;28;9706;-78
2022/10/25 09:44:37;;;;;;;;;29.75;28.50;;;;;21.74;56.77;99726.72;4932365;28;8974;-78
2022/10/25 09:47:19;;;;;;;;;28.20;26.20;;;;;21.46;58.06;99739.47;4964177;28;8840;-79
2022/10/25 09:49:57;;;;;;;;;27.80;26.40;;;;;21.51;58.28;99735.69;4963608;28;8876;-79
2022/10/25 09:52:34;;;;;;;;;34.00;27.25;;;;;21.45;58.45;99743.03;4939573;28;9580;-79
2022/10/25 09:55:23;;;;;;;;;27.20;27.20;;;;;21.37;58.79;99754.78;5051071;28;8878;-78
2022/10/25 09:57:52;;;;;;;;;30.80;28.40;;;;;21.42;58.47;99760.78;4983492;28;8877;-79
2022/10/25 10:00:21;;;;;;;;;24.60;23.20;;;;;21.01;59.66;99765.97;4983454;28;8866;-79
2022/10/25 10:02:51;;;;;;;;;26.00;25.40;;;;;21.18;59.31;99759.13;4983714;28;8862;-78
2022/10/25 10:05:21;;;;;;;;;25.40;21.80;;;;;20.92;61.02;99754.88;4967885;28;8913;-78
2022/10/25 10:07:51;;;;;;;;;24.20;23.20;;;;;21.38;59.49;99743.28;4939348;28;8904;-78
2022/10/25 10:10:23;;;;;;;;;26.40;24.80;;;;;21.12;59.93;99754.94;4931620;28;8997;-77
2022/10/25 10:12:58;;;;;;;;;30.00;27.80;;;;;20.59;61.68;99764.06;4927790;28;8853;-78
2022/10/25 10:15:37;;;;;;;;;28.20;25.20;;;;;21.13;60.06;99753.16;4956181;28;8940;-77
2022/10/25 10:18:28;;;;;;;;;39.00;34.50;;;;;21.03;59.91;99755.31;4928067;29;9117;-81
2022/10/25 10:21:05;;;;;;;;;17.40;14.60;;;;;20.83;59.37;99753.44;4928195;28;8857;-78
2022/10/25 10:23:44;;;;;;;;;22.00;20.80;;;;;20.96;59.77;99756.47;5008463;28;8876;-78
2022/10/25 10:26:18;;;;;;;;;19.40;19.20;;;;;20.74;60.25;99754.69;4928276;29;8893;-82
2022/10/25 10:28:51;;;;;;;;;18.80;17.80;;;;;20.92;59.47;99734.53;4939557;28;8879;-78
2022/10/25 10:31:20;;;;;;;;;26.25;26.00;;;;;21.11;58.62;99745.25;4946675;28;8971;-78
2022/10/25 10:33:51;;;;;;;;;16.60;16.00;;;;;21.15;58.13;99738.94;4960841;28;8840;-81
2022/10/25 10:36:22;;;;;;;;;20.40;19.80;;;;;21.66;56.89;99734.13;4964743;28;8852;-80
2022/10/25 10:38:52;;;;;;;;;19.40;15.40;;;;;21.82;56.05;99736.16;4964425;28;8860;-80
2022/10/25 10:41:26;;;;;;;;;21.80;19.80;;;;;22.16;55.26;99735.50;4967272;28;9634;-81
2022/10/25 10:44:11;;;;;;;;;28.60;25.20;;;;;22.36;54.37;99739.94;4971519;28;8951;-80
2022/10/25 10:46:45;;;;;;;;;23.00;21.20;;;;;22.43;54.20;99738.72;4971271;28;8961;-78
2022/10/25 10:49:16;;;;;;;;;19.20;19.20;;;;;22.12;54.98;99734.78;5050462;28;8868;-80
2022/10/25 10:51:46;;;;;;;;;22.80;22.20;;;;;21.99;55.72;99736.25;4976009;28;8994;-78
2022/10/25 10:54:25;;;;;;;;;22.20;20.80;;;;;22.17;55.22;99735.44;4969975;28;8876;-80
2022/10/25 10:56:59;;;;;;;;;20.60;17.00;;;;;21.92;55.09;99738.31;4967493;28;8873;-80
2022/10/25 10:59:36;;;;;;;;;18.80;17.00;;;;;21.51;56.24;99735.69;4982934;28;8936;-79
2022/10/25 11:02:21;;;;;;;;;13.20;13.20;;;;;21.38;54.54;99734.47;4982712;28;8853;-82
2022/10/25 11:04:53;;;;;;;;;15.40;14.00;;;;;21.48;55.74;99729.66;4934815;28;8976;-81
2022/10/25 11:07:31;;;;;;;;;17.40;15.80;;;;;21.87;54.52;99726.19;4962505;28;8973;-80
2022/10/25 11:10:25;;;;;;;;;18.40;15.00;;;;;22.24;53.03;99720.06;4915520;28;8855;-80
2022/10/25 11:13:14;;;;;;;;;14.60;11.60;;;;;21.77;53.89;99726.56;4931427;28;8883;-81
2022/10/25 11:16:11;;;;;;;;;17.60;15.00;;;;;22.00;53.75;99733.56;4963304;28;8879;-79
2022/10/25 11:18:50;;;;;;;;;19.20;18.40;;;;;22.05;54.03;99729.81;4949080;28;8863;-79
2022/10/25 11:21:43;;;;;;;;;8.00;7.40;;;;;21.86;53.75;99741.25;4949686;28;8855;-82
2022/10/25 11:24:26;;;;;;;;;15.60;14.80;;;;;21.77;54.52;99739.84;4949218;28;8863;-82
2022/10/25 11:27:05;;;;;;;;;15.60;14.40;;;;;21.28;55.85;99741.06;4958971;28;8880;-80
2022/10/25 11:29:50;;;;;;;;;14.40;14.40;;;;;21.11;56.77;99745.25;4982629;28;8912;-81
2022/10/25 11:32:45;;;;;;;;;22.60;16.60;;;;;21.23;56.39;99747.41;4951105;28;8845;-79
2022/10/25 11:35:43;;;;;;;;;17.40;16.00;;;;;21.53;55.70;99740.91;4929229;29;8866;-79
2022/10/25 11:38:20;;;;;;;;;17.20;15.60;;;;;21.52;55.57;99736.53;4917326;29;10336;-82
2022/10/25 11:41:01;;;;;;;;;18.80;18.00;;;;;21.32;56.45;99740.88;4926888;29;10075;-79
2022/10/25 11:43:50;;;;;;;;;15.60;14.40;;;;;21.50;56.15;99730.44;4912043;29;8969;-80
2022/10/25 11:46:30;;;;;;;;;17.20;16.20;;;;;21.50;56.50;99731.31;4927852;29;8908;-80
2022/10/25 11:49:25;;;;;;;;;20.60;18.60;;;;;21.63;56.27;99736.09;4896502;29;8871;-81
2022/10/25 11:52:14;;;;;;;;;17.80;17.20;;;;;21.79;55.32;99724.72;4926552;29;8874;-82